createdAt,value
2024-02-09T00:00:14.490Z,24.95
2024-02-09T00:01:14.605Z,24.93
2024-02-09T00:02:14.556Z,24.96
2024-02-09T00:03:14.597Z,24.95
2024-02-09T00:04:14.647Z,24.97
2024-02-09T00:05:14.661Z,24.94
2024-02-09T00:06:14.724Z,24.96
2024-02-09T00:07:14.806Z,24.96
2024-02-09T00:08:14.945Z,24.96
2024-02-09T00:09:14.798Z,24.97
2024-02-09T00:10:14.841Z,24.96
2024-02-09T00:11:14.882Z,24.98
2024-02-09T00:12:14.905Z,24.95
2024-02-09T00:13:14.919Z,24.97
2024-02-09T00:14:14.946Z,24.97
2024-02-09T00:15:14.984Z,24.97
2024-02-09T00:16:15.059Z,24.97
2024-02-09T00:17:15.048Z,24.98
2024-02-09T00:18:15.110Z,24.98
2024-02-09T00:19:15.164Z,24.97
2024-02-09T00:20:15.206Z,24.99
2024-02-09T00:21:15.172Z,24.97
2024-02-09T00:22:15.243Z,24.99
2024-02-09T00:23:15.238Z,25.00
2024-02-09T00:24:15.282Z,24.96
2024-02-09T00:25:15.401Z,24.98
2024-02-09T00:26:15.355Z,25.00
2024-02-09T00:27:15.383Z,24.99
2024-02-09T00:28:15.468Z,24.98
2024-02-09T00:29:15.456Z,25.00
2024-02-09T00:30:15.500Z,25.00
2024-02-09T00:31:15.566Z,25.00
2024-02-09T00:32:15.661Z,24.99
2024-02-09T00:33:15.689Z,25.00
2024-02-09T00:34:15.769Z,24.97
2024-02-09T00:35:15.687Z,24.96
2024-02-09T00:36:15.687Z,24.96
2024-02-09T00:37:15.741Z,24.96
2024-02-09T00:38:15.745Z,24.97
2024-02-09T00:39:15.782Z,24.98
2024-02-09T00:40:15.835Z,24.99
2024-02-09T00:41:15.845Z,25.00
2024-02-09T00:42:15.873Z,24.95
2024-02-09T00:43:15.965Z,24.97
2024-02-09T00:44:15.931Z,24.96
2024-02-09T00:45:15.967Z,24.96
2024-02-09T00:46:16.024Z,24.98
2024-02-09T00:47:16.033Z,24.96
2024-02-09T00:48:16.117Z,24.96
2024-02-09T00:49:16.159Z,24.98
2024-02-09T00:50:16.171Z,24.99
2024-02-09T00:51:16.169Z,24.97
2024-02-09T00:52:16.683Z,24.96
2024-02-09T00:53:16.250Z,24.97
2024-02-09T00:54:16.270Z,24.94
2024-02-09T00:55:16.383Z,24.94
2024-02-09T00:56:16.332Z,24.96
2024-02-09T00:57:16.382Z,24.95
2024-02-09T00:58:16.420Z,24.94
2024-02-09T00:59:16.434Z,24.93
2024-02-09T01:00:16.498Z,24.95
2024-02-09T01:01:16.635Z,24.95
2024-02-09T01:02:16.790Z,24.96
2024-02-09T01:03:16.564Z,24.95
2024-02-09T01:04:16.686Z,24.97
2024-02-09T01:05:16.957Z,24.98
2024-02-09T01:06:16.741Z,24.95
2024-02-09T01:07:16.744Z,24.95
2024-02-09T01:08:16.728Z,24.92
2024-02-09T01:09:16.764Z,24.92
2024-02-09T01:10:16.832Z,24.92
2024-02-09T01:11:16.839Z,24.94
2024-02-09T01:12:16.865Z,24.93
2024-02-09T01:13:16.943Z,24.92
2024-02-09T01:14:16.943Z,24.92
2024-02-09T01:15:16.982Z,24.90
2024-02-09T01:16:17.059Z,24.94
2024-02-09T01:17:17.044Z,24.92
2024-02-09T01:18:17.098Z,24.92
2024-02-09T01:19:17.259Z,24.94
2024-02-09T01:20:17.209Z,24.92
2024-02-09T01:21:17.227Z,24.93
2024-02-09T01:22:17.288Z,24.90
2024-02-09T01:23:17.289Z,24.91
2024-02-09T01:24:17.328Z,24.91
2024-02-09T01:25:17.999Z,24.91
2024-02-09T01:26:17.418Z,24.91
2024-02-09T01:27:17.454Z,24.87
2024-02-09T01:28:17.498Z,24.87
2024-02-09T01:29:17.529Z,24.87
2024-02-09T01:30:17.582Z,24.89
2024-02-09T01:31:17.654Z,24.89
2024-02-09T01:32:17.658Z,24.91
2024-02-09T01:33:17.734Z,24.89
2024-02-09T01:34:17.856Z,24.92
2024-02-09T01:35:17.799Z,24.90
2024-02-09T01:36:17.839Z,24.90
2024-02-09T01:37:17.870Z,24.89
2024-02-09T01:38:17.881Z,24.89
2024-02-09T01:39:17.936Z,24.90
2024-02-09T01:40:17.970Z,24.88
2024-02-09T01:41:18.010Z,24.89
2024-02-09T01:42:18.041Z,24.86
2024-02-09T01:43:18.121Z,24.87
2024-02-09T01:44:18.119Z,24.87
2024-02-09T01:45:18.235Z,24.89
2024-02-09T01:46:18.221Z,24.90
2024-02-09T01:47:18.223Z,24.87
2024-02-09T01:48:18.337Z,24.88
2024-02-09T01:49:18.397Z,24.88
2024-02-09T01:50:18.331Z,24.87
2024-02-09T01:51:18.384Z,24.88
2024-02-09T01:52:18.506Z,24.88
2024-02-09T01:53:18.584Z,24.88
2024-02-09T01:54:18.508Z,24.88
2024-02-09T01:55:18.517Z,24.88
2024-02-09T01:56:18.516Z,24.86
2024-02-09T01:57:18.552Z,24.88
2024-02-09T01:58:18.605Z,24.87
2024-02-09T01:59:18.561Z,24.89
2024-02-09T02:00:18.591Z,24.87
2024-02-09T02:01:19.313Z,24.87
2024-02-09T02:02:18.734Z,24.86
2024-02-09T02:03:18.715Z,24.86
2024-02-09T02:04:18.709Z,24.89
2024-02-09T02:05:18.667Z,24.86
2024-02-09T02:06:18.649Z,24.87
2024-02-09T02:07:18.707Z,24.86
2024-02-09T02:08:18.677Z,24.86
2024-02-09T02:09:18.685Z,24.86
2024-02-09T02:10:18.720Z,24.85
2024-02-09T02:11:18.709Z,24.86
2024-02-09T02:12:18.723Z,24.85
2024-02-09T02:13:18.739Z,24.86
2024-02-09T02:14:18.732Z,24.84
2024-02-09T02:15:18.734Z,24.84
2024-02-09T02:16:18.796Z,24.83
2024-02-09T02:17:18.770Z,24.83
2024-02-09T02:18:18.869Z,24.83
2024-02-09T02:19:19.033Z,24.82
2024-02-09T02:20:18.990Z,24.84
2024-02-09T02:21:18.890Z,24.84
2024-02-09T02:22:18.965Z,24.83
2024-02-09T02:23:18.972Z,24.85
2024-02-09T02:24:18.998Z,24.83
2024-02-09T02:25:19.109Z,24.82
2024-02-09T02:26:19.064Z,24.84
2024-02-09T02:27:19.088Z,24.85
2024-02-09T02:28:19.144Z,24.85
2024-02-09T02:29:19.162Z,24.84
2024-02-09T02:30:19.209Z,24.85
2024-02-09T02:31:19.266Z,24.83
2024-02-09T02:32:19.279Z,24.83
2024-02-09T02:33:19.458Z,24.83
2024-02-09T02:34:19.416Z,24.83
2024-02-09T02:35:19.405Z,24.85
2024-02-09T02:36:19.449Z,24.81
2024-02-09T02:37:19.487Z,24.84
2024-02-09T02:38:19.510Z,24.83
2024-02-09T02:39:19.578Z,24.84
2024-02-09T02:40:19.702Z,24.82
2024-02-09T02:41:19.639Z,24.84
2024-02-09T02:42:19.668Z,24.82
2024-02-09T02:43:19.780Z,24.81
2024-02-09T02:44:19.757Z,24.81
2024-02-09T02:45:19.792Z,24.81
2024-02-09T02:46:19.848Z,24.82
2024-02-09T02:47:19.886Z,24.82
2024-02-09T02:48:21.619Z,24.84
2024-02-09T02:49:20.107Z,24.83
2024-02-09T02:50:19.977Z,24.84
2024-02-09T02:51:19.925Z,24.85
2024-02-09T02:52:20.046Z,24.82
2024-02-09T02:53:19.936Z,24.84
2024-02-09T02:54:19.928Z,24.81
2024-02-09T02:55:19.949Z,24.81
2024-02-09T02:56:19.943Z,24.82
2024-02-09T02:57:19.967Z,24.83
2024-02-09T02:58:19.985Z,24.83
2024-02-09T02:59:19.939Z,24.81
2024-02-09T03:00:19.960Z,24.82
2024-02-09T03:01:20.016Z,24.79
2024-02-09T03:02:19.932Z,24.82
2024-02-09T03:03:19.961Z,24.82
2024-02-09T03:04:19.962Z,24.81
2024-02-09T03:05:20.188Z,24.82
2024-02-09T03:06:19.997Z,24.83
2024-02-09T03:09:20.070Z,24.83
2024-02-09T03:10:19.959Z,24.80
2024-02-09T03:11:19.956Z,24.82
2024-02-09T03:12:19.971Z,24.82
2024-02-09T03:13:20.019Z,24.83
2024-02-09T03:14:19.946Z,24.80
2024-02-09T03:15:19.955Z,24.83
2024-02-09T03:16:19.990Z,24.82
2024-02-09T03:17:19.981Z,24.81
2024-02-09T03:18:20.010Z,24.80
2024-02-09T03:19:20.057Z,24.80
2024-02-09T03:20:19.963Z,24.80
2024-02-09T03:21:19.983Z,24.80
2024-02-09T03:22:20.042Z,24.79
2024-02-09T03:23:19.981Z,24.80
2024-02-09T03:24:19.994Z,24.79
2024-02-09T03:25:20.034Z,24.78
2024-02-09T03:26:19.994Z,24.79
2024-02-09T03:27:19.994Z,24.78
2024-02-09T03:28:20.366Z,24.79
2024-02-09T03:29:19.991Z,24.77
2024-02-09T03:30:19.998Z,24.80
2024-02-09T03:31:20.044Z,24.77
2024-02-09T03:32:19.986Z,24.78
2024-02-09T03:33:20.130Z,24.78
2024-02-09T03:34:20.377Z,24.79
2024-02-09T03:35:20.091Z,24.80
2024-02-09T03:36:20.012Z,24.77
2024-02-09T03:37:20.091Z,24.79
2024-02-09T03:38:20.001Z,24.79
2024-02-09T03:39:20.007Z,24.78
2024-02-09T03:40:20.098Z,24.80
2024-02-09T03:41:20.027Z,24.81
2024-02-09T03:42:20.026Z,24.80
2024-02-09T03:43:20.042Z,24.79
2024-02-09T03:44:20.012Z,24.80
2024-02-09T03:45:20.012Z,24.79
2024-02-09T03:46:20.050Z,24.78
2024-02-09T03:47:20.031Z,24.78
2024-02-09T03:48:20.127Z,24.76
2024-02-09T03:49:20.171Z,24.78
2024-02-09T03:50:20.062Z,24.80
2024-02-09T03:51:20.046Z,24.77
2024-02-09T03:52:20.188Z,24.79
2024-02-09T03:53:20.034Z,24.79
2024-02-09T03:54:20.052Z,24.78
2024-02-09T03:55:20.095Z,24.79
2024-02-09T03:56:20.064Z,24.77
2024-02-09T03:57:20.048Z,24.79
2024-02-09T03:58:20.141Z,24.78
2024-02-09T03:59:20.051Z,24.77
2024-02-09T04:00:20.143Z,24.78
2024-02-09T04:01:20.126Z,24.78
2024-02-09T04:02:20.087Z,24.79
2024-02-09T04:03:20.134Z,24.77
2024-02-09T04:04:20.224Z,24.78
2024-02-09T04:05:20.299Z,24.77
2024-02-09T04:06:20.089Z,24.78
2024-02-09T04:07:20.105Z,24.77
2024-02-09T04:08:20.061Z,24.76
2024-02-09T04:11:20.145Z,24.77
2024-02-09T04:12:20.080Z,24.77
2024-02-09T04:13:20.127Z,24.77
2024-02-09T04:14:20.101Z,24.75
2024-02-09T04:15:20.072Z,24.76
2024-02-09T04:16:20.201Z,24.75
2024-02-09T04:17:20.072Z,24.77
2024-02-09T04:18:20.117Z,24.78
2024-02-09T04:19:20.112Z,24.79
2024-02-09T04:20:20.087Z,24.77
2024-02-09T04:21:20.078Z,24.76
2024-02-09T04:22:20.291Z,24.77
2024-02-09T04:23:20.081Z,24.76
2024-02-09T04:24:20.078Z,24.79
2024-02-09T04:25:27.313Z,24.82
2024-02-09T04:26:27.264Z,24.81
2024-02-09T04:27:27.263Z,24.79
2024-02-09T04:28:27.355Z,24.80
2024-02-09T04:29:27.285Z,24.76
2024-02-09T04:30:27.272Z,24.77
2024-02-09T04:31:34.469Z,24.83
2024-02-09T04:32:34.470Z,24.77
2024-02-09T04:33:34.464Z,24.78
2024-02-09T04:34:34.524Z,24.78
2024-02-09T04:35:34.445Z,24.78
2024-02-09T04:36:34.453Z,24.78
2024-02-09T04:37:34.517Z,24.78
2024-02-09T04:38:34.460Z,24.79
2024-02-09T04:39:34.461Z,24.77
2024-02-09T04:40:34.458Z,24.79
2024-02-09T04:41:34.456Z,24.77
2024-02-09T04:42:34.473Z,24.79
2024-02-09T04:43:34.489Z,24.78
2024-02-09T04:44:34.662Z,24.77
2024-02-09T04:45:34.476Z,24.77
2024-02-09T04:46:34.494Z,24.78
2024-02-09T04:47:34.544Z,24.77
2024-02-09T04:48:34.542Z,24.77
2024-02-09T04:49:34.609Z,24.78
2024-02-09T04:50:34.468Z,24.77
2024-02-09T04:51:34.462Z,24.76
2024-02-09T04:52:34.482Z,24.76
2024-02-09T04:53:34.466Z,24.77
2024-02-09T04:54:34.469Z,24.75
2024-02-09T04:55:34.566Z,24.76
2024-02-09T04:56:34.475Z,24.73
2024-02-09T04:57:34.476Z,24.74
2024-02-09T04:58:34.543Z,24.75
2024-02-09T04:59:34.494Z,24.73
2024-02-09T05:00:34.511Z,24.72
2024-02-09T05:01:34.547Z,24.74
2024-02-09T05:02:34.488Z,24.73
2024-02-09T05:03:34.488Z,24.74
2024-02-09T05:04:34.601Z,24.71
2024-02-09T05:05:35.056Z,24.72
2024-02-09T05:06:34.629Z,24.73
2024-02-09T05:07:34.672Z,24.73
2024-02-09T05:08:34.712Z,24.73
2024-02-09T05:09:34.752Z,24.73
2024-02-09T05:10:34.766Z,24.73
2024-02-09T05:11:34.808Z,24.73
2024-02-09T05:12:34.838Z,24.75
2024-02-09T05:13:34.921Z,24.73
2024-02-09T05:14:34.912Z,24.73
2024-02-09T05:15:35.057Z,24.73
2024-02-09T05:16:35.096Z,24.72
2024-02-09T05:17:35.107Z,24.72
2024-02-09T05:18:35.169Z,24.74
2024-02-09T05:19:35.138Z,24.74
2024-02-09T05:20:35.202Z,24.73
2024-02-09T05:21:35.244Z,24.74
2024-02-09T05:22:35.332Z,24.73
2024-02-09T05:23:35.324Z,24.74
2024-02-09T05:24:35.362Z,24.72
2024-02-09T05:25:35.435Z,24.74
2024-02-09T05:26:35.439Z,24.74
2024-02-09T05:27:35.426Z,24.73
2024-02-09T05:28:35.465Z,24.74
2024-02-09T05:29:35.463Z,24.74
2024-02-09T05:30:35.479Z,24.72
2024-02-09T05:31:35.552Z,24.71
2024-02-09T05:32:35.574Z,24.72
2024-02-09T05:33:35.551Z,24.71
2024-02-09T05:34:35.651Z,24.70
2024-02-09T05:35:35.665Z,24.69
2024-02-09T05:36:35.719Z,24.72
2024-02-09T05:37:35.817Z,24.69
2024-02-09T05:38:35.800Z,24.68
2024-02-09T05:39:35.837Z,24.69
2024-02-09T05:40:35.916Z,24.67
2024-02-09T05:41:35.931Z,24.70
2024-02-09T05:42:35.990Z,24.68
2024-02-09T05:43:36.111Z,24.69
2024-02-09T05:44:36.084Z,24.68
2024-02-09T05:45:36.125Z,24.70
2024-02-09T05:46:36.229Z,24.68
2024-02-09T05:47:36.271Z,24.68
2024-02-09T05:48:36.342Z,24.68
2024-02-09T05:49:36.408Z,24.68
2024-02-09T05:50:40.561Z,24.69
2024-02-09T05:51:37.368Z,24.68
2024-02-09T05:52:36.438Z,24.67
2024-02-09T05:53:36.375Z,24.67
2024-02-09T05:54:36.373Z,24.65
2024-02-09T05:55:36.403Z,24.63
2024-02-09T05:56:36.397Z,24.66
2024-02-09T05:57:36.373Z,24.66
2024-02-09T05:58:36.518Z,24.64
2024-02-09T05:59:36.375Z,24.64
2024-02-09T06:00:36.397Z,24.63
2024-02-09T06:01:36.392Z,24.63
2024-02-09T06:02:36.377Z,24.63
2024-02-09T06:03:36.451Z,24.62
2024-02-09T06:04:36.516Z,24.63
2024-02-09T06:05:36.547Z,24.61
2024-02-09T06:06:36.550Z,24.61
2024-02-09T06:07:36.594Z,24.61
2024-02-09T06:08:36.638Z,24.61
2024-02-09T06:09:36.641Z,24.59
2024-02-09T06:10:36.713Z,24.59
2024-02-09T06:11:36.756Z,24.61
2024-02-09T06:12:39.165Z,24.60
2024-02-09T06:13:37.005Z,24.60
2024-02-09T06:14:36.987Z,24.60
2024-02-09T06:15:37.018Z,24.60
2024-02-09T06:16:37.129Z,24.60
2024-02-09T06:17:37.165Z,24.59
2024-02-09T06:18:37.240Z,24.61
2024-02-09T06:19:37.382Z,24.59
2024-02-09T06:20:37.236Z,24.61
2024-02-09T06:21:37.307Z,24.60
2024-02-09T06:22:37.374Z,24.58
2024-02-09T06:23:37.390Z,24.60
2024-02-09T06:24:37.432Z,24.59
2024-02-09T06:25:37.509Z,24.60
2024-02-09T06:26:37.670Z,24.60
2024-02-09T06:27:37.571Z,24.67
2024-02-09T06:28:38.627Z,24.85
2024-02-09T06:29:37.656Z,25.65
2024-02-09T06:30:37.701Z,25.59
2024-02-09T06:31:38.150Z,26.24
2024-02-09T06:32:37.886Z,26.36
2024-02-09T06:33:37.973Z,26.76
2024-02-09T06:34:37.997Z,26.97
2024-02-09T06:35:37.935Z,27.09
2024-02-09T06:36:37.997Z,26.79
2024-02-09T06:37:38.147Z,26.58
2024-02-09T06:38:38.124Z,27.18
2024-02-09T06:39:38.177Z,27.26
2024-02-09T06:40:38.272Z,28.32
2024-02-09T06:41:38.603Z,27.94
2024-02-09T06:42:38.317Z,27.92
2024-02-09T06:43:38.393Z,28.40
2024-02-09T06:44:39.097Z,28.39
2024-02-09T06:45:38.460Z,28.06
2024-02-09T06:46:38.552Z,27.55
2024-02-09T06:47:38.557Z,27.20
2024-02-09T06:48:38.604Z,27.03
2024-02-09T06:49:38.644Z,27.02
2024-02-09T06:50:38.616Z,26.84
2024-02-09T06:51:38.669Z,26.50
2024-02-09T06:52:38.854Z,26.38
2024-02-09T06:53:38.715Z,26.29
2024-02-09T06:54:38.780Z,26.17
2024-02-09T06:55:38.795Z,26.10
2024-02-09T06:56:38.816Z,25.97
2024-02-09T06:57:38.843Z,25.96
2024-02-09T06:58:38.952Z,25.96
2024-02-09T06:59:38.903Z,25.88
2024-02-09T07:00:38.963Z,25.88
2024-02-09T07:01:39.143Z,25.84
2024-02-09T07:02:39.057Z,25.72
2024-02-09T07:03:39.081Z,25.62
2024-02-09T07:04:39.315Z,25.54
2024-02-09T07:05:39.144Z,25.53
2024-02-09T07:06:39.142Z,25.49
2024-02-09T07:07:39.276Z,25.47
2024-02-09T07:08:39.194Z,25.40
2024-02-09T07:09:39.233Z,25.40
2024-02-09T07:10:39.335Z,25.41
2024-02-09T07:11:39.316Z,25.40
2024-02-09T07:12:39.335Z,25.44
2024-02-09T07:13:39.413Z,25.43
2024-02-09T07:14:39.407Z,25.42
2024-02-09T07:15:39.419Z,25.48
2024-02-09T07:16:39.482Z,25.51
2024-02-09T07:17:41.020Z,25.51
2024-02-09T07:18:39.775Z,25.51
2024-02-09T07:19:39.858Z,25.51
2024-02-09T07:20:39.866Z,25.44
2024-02-09T07:21:39.840Z,25.42
2024-02-09T07:22:39.901Z,25.44
2024-02-09T07:23:39.847Z,25.39
2024-02-09T07:24:39.880Z,25.37
2024-02-09T07:25:39.928Z,25.34
2024-02-09T07:26:39.951Z,25.32
2024-02-09T07:27:39.956Z,25.34
2024-02-09T07:28:40.080Z,25.30
2024-02-09T07:29:40.017Z,25.52
2024-02-09T07:30:40.055Z,25.82
2024-02-09T07:31:40.186Z,26.32
2024-02-09T07:32:40.158Z,26.89
2024-02-09T07:33:40.234Z,27.37
2024-02-09T07:34:40.295Z,26.98
2024-02-09T07:35:40.212Z,28.18
2024-02-09T07:36:40.633Z,27.42
2024-02-09T07:37:40.356Z,27.51
2024-02-09T07:38:40.293Z,27.36
2024-02-09T07:39:40.285Z,27.24
2024-02-09T07:40:40.403Z,27.15
2024-02-09T07:41:40.348Z,27.17
2024-02-09T07:42:40.331Z,27.09
2024-02-09T07:43:40.452Z,27.33
2024-02-09T07:44:40.368Z,26.68
2024-02-09T07:45:40.383Z,26.56
2024-02-09T07:46:40.689Z,27.40
2024-02-09T07:47:40.599Z,27.26
2024-02-09T07:48:40.626Z,27.09
2024-02-09T07:49:40.685Z,26.65
2024-02-09T07:50:40.684Z,26.72
2024-02-09T07:51:40.722Z,26.70
2024-02-09T07:52:40.820Z,26.87
2024-02-09T07:53:40.787Z,26.96
2024-02-09T07:54:40.790Z,26.77
2024-02-09T07:55:40.899Z,26.69
2024-02-09T07:56:40.865Z,26.65
2024-02-09T07:57:40.908Z,26.62
2024-02-09T07:58:41.044Z,26.68
2024-02-09T07:59:40.994Z,26.71
2024-02-09T08:00:41.070Z,26.78
2024-02-09T08:01:41.209Z,26.82
2024-02-09T08:02:41.166Z,26.88
2024-02-09T08:03:41.218Z,27.00
2024-02-09T08:04:41.335Z,27.09
2024-02-09T08:05:41.237Z,27.07
2024-02-09T08:06:41.343Z,27.14
2024-02-09T08:07:41.312Z,27.21
2024-02-09T08:08:41.272Z,27.50
2024-02-09T08:09:41.329Z,27.97
2024-02-09T08:10:41.434Z,28.02
2024-02-09T08:11:41.384Z,28.07
2024-02-09T08:12:41.389Z,28.13
2024-02-09T08:13:41.463Z,28.12
2024-02-09T08:14:41.449Z,28.13
2024-02-09T08:15:41.505Z,28.14
2024-02-09T08:16:41.656Z,28.25
2024-02-09T08:17:41.738Z,28.31
2024-02-09T08:18:41.724Z,28.46
2024-02-09T08:19:41.852Z,28.62
2024-02-09T08:20:41.813Z,28.88
2024-02-09T08:21:41.885Z,29.05
2024-02-09T08:22:42.037Z,29.19
2024-02-09T08:23:42.031Z,29.07
2024-02-09T08:24:42.050Z,28.94
2024-02-09T08:25:42.120Z,28.97
2024-02-09T08:26:49.518Z,29.22
2024-02-09T08:27:43.095Z,29.65
2024-02-09T08:28:42.250Z,29.62
2024-02-09T08:29:42.892Z,29.71
2024-02-09T08:30:42.117Z,29.68
2024-02-09T08:31:42.155Z,29.49
2024-02-09T08:32:42.123Z,29.19
2024-02-09T08:33:42.155Z,29.03
2024-02-09T08:34:42.301Z,28.72
2024-02-09T08:35:42.134Z,28.36
2024-02-09T08:36:42.118Z,28.18
2024-02-09T08:37:42.202Z,28.00
2024-02-09T08:38:42.113Z,28.02
2024-02-09T08:39:42.181Z,28.31
2024-02-09T08:40:42.338Z,28.32
2024-02-09T08:41:42.649Z,28.35
2024-02-09T08:42:43.448Z,28.23
2024-02-09T08:43:42.472Z,28.25
2024-02-09T08:44:42.409Z,28.13
2024-02-09T08:45:42.429Z,28.29
2024-02-09T08:46:42.485Z,28.31
2024-02-09T08:47:42.483Z,28.19
2024-02-09T08:48:42.523Z,28.12
2024-02-09T08:49:42.552Z,28.33
2024-02-09T08:50:42.528Z,28.12
2024-02-09T08:51:42.670Z,28.00
2024-02-09T08:52:42.636Z,27.99
2024-02-09T08:53:42.511Z,27.93
2024-02-09T08:54:42.516Z,27.93
2024-02-09T08:55:42.531Z,27.91
2024-02-09T08:56:42.530Z,27.94
2024-02-09T08:57:42.559Z,28.00
2024-02-09T08:58:42.775Z,27.74
2024-02-09T08:59:42.686Z,28.00
2024-02-09T09:00:53.202Z,28.22
2024-02-09T09:01:44.269Z,28.21
2024-02-09T09:02:42.809Z,28.20
2024-02-09T09:03:42.806Z,28.24
2024-02-09T09:04:42.852Z,28.45
2024-02-09T09:05:44.102Z,28.40
2024-02-09T09:06:42.949Z,28.33
2024-02-09T09:07:42.965Z,28.38
2024-02-09T09:08:43.023Z,28.08
2024-02-09T09:09:43.078Z,28.10
2024-02-09T09:10:43.167Z,28.04
2024-02-09T09:11:43.175Z,28.02
2024-02-09T09:12:43.673Z,28.27
2024-02-09T09:13:43.270Z,28.10
2024-02-09T09:14:43.257Z,28.00
2024-02-09T09:15:43.296Z,28.17
2024-02-09T09:16:43.303Z,28.16
2024-02-09T09:17:43.407Z,27.97
2024-02-09T09:18:43.388Z,27.92
2024-02-09T09:19:43.543Z,27.79
2024-02-09T09:20:43.474Z,27.82
2024-02-09T09:21:43.691Z,28.41
2024-02-09T09:22:43.761Z,28.98
2024-02-09T09:23:43.604Z,29.12
2024-02-09T09:24:43.632Z,29.17
2024-02-09T09:25:43.666Z,29.16
2024-02-09T09:26:43.655Z,29.11
2024-02-09T09:27:43.682Z,28.97
2024-02-09T09:28:43.800Z,28.87
2024-02-09T09:29:43.789Z,28.57
2024-02-09T09:30:43.880Z,28.45
2024-02-09T09:31:44.223Z,28.46
2024-02-09T09:32:44.010Z,28.78
2024-02-09T09:33:44.147Z,29.63
2024-02-09T09:34:44.229Z,29.49
2024-02-09T09:35:44.303Z,30.19
2024-02-09T09:36:44.672Z,29.64
2024-02-09T09:37:44.330Z,29.46
2024-02-09T09:38:44.308Z,28.81
2024-02-09T09:39:44.368Z,29.56
2024-02-09T09:40:44.421Z,29.41
2024-02-09T09:41:44.736Z,29.42
2024-02-09T09:42:44.422Z,29.82
2024-02-09T09:43:44.566Z,29.88
2024-02-09T09:44:44.489Z,29.87
2024-02-09T09:45:44.511Z,29.80
2024-02-09T09:46:44.598Z,29.68
2024-02-09T09:47:44.609Z,29.64
2024-02-09T09:48:44.568Z,29.80
2024-02-09T09:49:44.848Z,29.62
2024-02-09T09:50:44.574Z,29.45
2024-02-09T09:51:44.601Z,29.43
2024-02-09T09:52:44.807Z,29.22
2024-02-09T09:53:44.617Z,29.12
2024-02-09T09:54:44.638Z,28.94
2024-02-09T09:55:44.687Z,29.25
2024-02-09T09:56:44.666Z,29.07
2024-02-09T09:57:44.691Z,28.95
2024-02-09T09:58:44.883Z,28.76
2024-02-09T09:59:44.730Z,28.05
2024-02-09T10:00:44.823Z,27.23
2024-02-09T10:01:44.916Z,27.43
2024-02-09T10:02:44.845Z,27.07
2024-02-09T10:03:44.999Z,27.54
2024-02-09T10:04:45.097Z,27.69
2024-02-09T10:05:45.207Z,27.93
2024-02-09T10:06:45.078Z,27.84
2024-02-09T10:07:45.146Z,28.06
2024-02-09T10:08:45.029Z,28.00
2024-02-09T10:09:45.046Z,28.06
2024-02-09T10:10:45.134Z,28.19
2024-02-09T10:11:45.172Z,28.09
2024-02-09T10:12:45.246Z,28.02
2024-02-09T10:13:45.378Z,28.07
2024-02-09T10:14:45.380Z,28.14
2024-02-09T10:15:45.441Z,28.25
2024-02-09T10:16:45.942Z,28.02
2024-02-09T10:17:45.633Z,28.19
2024-02-09T10:18:46.461Z,28.16
2024-02-09T10:19:45.692Z,28.38
2024-02-09T10:20:45.770Z,28.30
2024-02-09T10:21:53.694Z,27.90
2024-02-09T10:22:46.816Z,27.73
2024-02-09T10:23:45.819Z,27.82
2024-02-09T10:24:45.850Z,27.26
2024-02-09T10:25:45.962Z,27.38
2024-02-09T10:26:46.212Z,27.35
2024-02-09T10:27:46.034Z,27.20
2024-02-09T10:28:46.142Z,27.12
2024-02-09T10:29:46.164Z,26.76
2024-02-09T10:30:46.272Z,26.63
2024-02-09T10:31:46.348Z,26.39
2024-02-09T10:32:46.402Z,26.36
2024-02-09T10:33:46.438Z,26.39
2024-02-09T10:34:46.708Z,26.40
2024-02-09T10:35:46.682Z,26.42
2024-02-09T10:36:46.777Z,26.38
2024-02-09T10:37:46.763Z,26.41
2024-02-09T10:38:46.786Z,26.38
2024-02-09T10:39:46.862Z,26.34
2024-02-09T10:40:46.934Z,26.35
2024-02-09T10:41:47.008Z,26.38
2024-02-09T10:42:47.079Z,26.34
2024-02-09T10:43:47.203Z,26.36
2024-02-09T10:44:47.208Z,26.33
2024-02-09T10:45:47.301Z,26.37
2024-02-09T10:46:47.394Z,26.21
2024-02-09T10:47:47.456Z,26.27
2024-02-09T10:48:47.568Z,26.20
2024-02-09T10:49:47.591Z,26.28
2024-02-09T10:50:47.629Z,26.24
2024-02-09T10:51:47.712Z,26.24
2024-02-09T10:52:47.862Z,26.24
2024-02-09T10:53:47.856Z,26.21
2024-02-09T10:54:47.924Z,26.24
2024-02-09T10:55:48.085Z,26.16
2024-02-09T10:56:48.135Z,26.20
2024-02-09T10:57:48.126Z,26.12
2024-02-09T10:58:48.290Z,26.12
2024-02-09T10:59:48.275Z,26.15
2024-02-09T11:00:48.354Z,26.11
2024-02-09T11:01:48.429Z,26.04
2024-02-09T11:02:48.474Z,26.18
2024-02-09T11:03:48.561Z,26.14
2024-02-09T11:04:48.823Z,26.17
2024-02-09T11:05:48.812Z,26.12
2024-02-09T11:06:48.769Z,26.13
2024-02-09T11:07:48.904Z,26.25
2024-02-09T11:08:48.844Z,26.10
2024-02-09T11:09:48.896Z,26.08
2024-02-09T11:10:48.988Z,25.93
2024-02-09T11:11:49.108Z,25.93
2024-02-09T11:12:49.077Z,25.98
2024-02-09T11:13:49.159Z,26.01
2024-02-09T11:14:49.202Z,26.05
2024-02-09T11:15:49.317Z,26.10
2024-02-09T11:16:49.424Z,26.07
2024-02-09T11:17:49.430Z,26.20
2024-02-09T11:18:49.494Z,26.17
2024-02-09T11:19:49.631Z,26.35
2024-02-09T11:20:49.558Z,26.88
2024-02-09T11:21:49.600Z,27.12
2024-02-09T11:22:49.689Z,27.42
2024-02-09T11:23:49.669Z,27.85
2024-02-09T11:24:49.686Z,28.42
2024-02-09T11:25:49.753Z,29.20
2024-02-09T11:26:49.791Z,32.05
2024-02-09T11:27:49.774Z,32.35
2024-02-09T11:28:49.861Z,34.66
2024-02-09T11:29:49.933Z,37.61
2024-02-09T11:30:49.869Z,35.07
2024-02-09T11:31:49.873Z,34.81
2024-02-09T11:32:49.932Z,34.41
2024-02-09T11:33:50.320Z,33.70
2024-02-09T11:34:50.409Z,33.68
2024-02-09T11:35:50.010Z,34.87
2024-02-09T11:36:50.069Z,34.83
2024-02-09T11:37:50.179Z,34.61
2024-02-09T11:38:50.203Z,34.59
2024-02-09T11:39:53.473Z,34.42
2024-02-09T11:40:50.313Z,33.96
2024-02-09T11:41:50.258Z,33.33
2024-02-09T11:42:50.258Z,32.73
2024-02-09T11:43:50.298Z,32.48
2024-02-09T11:44:50.286Z,32.48
2024-02-09T11:45:53.524Z,32.53
2024-02-09T11:46:50.310Z,32.38
2024-02-09T11:47:50.304Z,32.70
2024-02-09T11:48:50.353Z,32.44
2024-02-09T11:49:50.313Z,32.16
2024-02-09T11:50:50.292Z,32.12
2024-02-09T11:51:53.365Z,31.89
2024-02-09T11:53:01.304Z,31.76
2024-02-09T11:53:51.298Z,31.66
2024-02-09T11:54:50.272Z,31.54
2024-02-09T11:55:50.370Z,31.36
2024-02-09T11:56:50.281Z,31.24
2024-02-09T11:57:50.293Z,31.17
2024-02-09T11:58:50.489Z,31.00
2024-02-09T11:59:50.297Z,30.62
2024-02-09T12:00:50.316Z,30.58
2024-02-09T12:01:50.408Z,30.55
2024-02-09T12:02:50.309Z,30.30
2024-02-09T12:03:50.380Z,30.04
2024-02-09T12:04:50.366Z,29.89
2024-02-09T12:05:50.315Z,29.71
2024-02-09T12:06:50.363Z,29.51
2024-02-09T12:07:50.349Z,29.26
2024-02-09T12:08:50.347Z,29.32
2024-02-09T12:09:50.310Z,29.37
2024-02-09T12:10:50.478Z,29.24
2024-02-09T12:11:50.311Z,29.28
2024-02-09T12:12:50.346Z,29.13
2024-02-09T12:13:50.341Z,28.91
2024-02-09T12:14:50.313Z,28.84
2024-02-09T12:15:50.349Z,28.69
2024-02-09T12:16:50.371Z,28.62
2024-02-09T12:17:50.398Z,28.50
2024-02-09T12:18:50.445Z,28.30
2024-02-09T12:19:50.371Z,28.38
2024-02-09T12:20:50.341Z,28.60
2024-02-09T12:21:50.352Z,28.60
2024-02-09T12:22:50.386Z,28.58
2024-02-09T12:23:50.344Z,28.43
2024-02-09T12:24:50.345Z,28.48
2024-02-09T12:25:50.393Z,28.28
2024-02-09T12:26:50.385Z,28.15
2024-02-09T12:27:50.391Z,28.11
2024-02-09T12:28:50.456Z,27.97
2024-02-09T12:29:50.451Z,27.89
2024-02-09T12:30:50.459Z,27.77
2024-02-09T12:31:50.537Z,27.74
2024-02-09T12:32:50.516Z,27.64
2024-02-09T12:33:50.561Z,27.58
2024-02-09T12:34:50.503Z,27.60
2024-02-09T12:35:50.504Z,27.48
2024-02-09T12:36:50.507Z,27.29
2024-02-09T12:37:50.531Z,27.31
2024-02-09T12:38:50.507Z,27.47
2024-02-09T12:39:50.515Z,27.17
2024-02-09T12:40:50.634Z,27.11
2024-02-09T12:41:50.549Z,27.19
2024-02-09T12:42:50.557Z,27.18
2024-02-09T12:43:50.646Z,27.01
2024-02-09T12:44:50.637Z,26.91
2024-02-09T12:45:50.606Z,26.71
2024-02-09T12:46:50.702Z,26.53
2024-02-09T12:47:50.805Z,26.40
2024-02-09T12:48:50.705Z,26.29
2024-02-09T12:49:50.847Z,26.24
2024-02-09T12:50:50.713Z,26.21
2024-02-09T12:51:50.703Z,26.11
2024-02-09T12:52:50.768Z,26.05
2024-02-09T12:53:50.728Z,26.05
2024-02-09T12:54:50.738Z,25.98
2024-02-09T12:55:50.861Z,25.92
2024-02-09T12:56:50.777Z,25.96